Lexington, Missouri
Current Conditions -  °F | °C
As of 3:15 AM on Monday 20 Oct 2014 (Local Time) from KGPH Reporting Station
NA  
Wind Chill: 46°   Ceiling: NA
Heat Index: 46°   Visibility: 10mi
Dew Point: 46°   Wind: 0mph
Humidity: 100%   Direction: NA
Pressure: 30"   Gusts: NA
Location:  39.18°N, 93.88°W
Report Text: KGPH 200815Z AUTO 00000KT 10SM 08/08 A3000 RMK AO2
Loading
Personal Weather Stations






























Interactive Weather Map New forecast layout! Learn more

10-Day Weather Forecast

Advertisements
Track Severe Weather on mobile